createdAt,value
2023-01-30T00:00:10.924Z,26.25
2023-01-30T00:02:37.390Z,33.40
2023-01-30T00:05:04.438Z,29.42
2023-01-30T00:07:30.886Z,32.78
2023-01-30T00:09:57.300Z,29.48
2023-01-30T00:12:23.711Z,29.35
2023-01-30T00:14:51.475Z,28.92
2023-01-30T00:17:17.886Z,25.63
2023-01-30T00:19:44.276Z,27.40
2023-01-30T00:22:10.689Z,27.17
2023-01-30T00:24:37.323Z,30.27
2023-01-30T00:27:03.868Z,28.35
2023-01-30T00:29:30.265Z,29.60
2023-01-30T00:31:58.079Z,29.42
2023-01-30T00:34:24.530Z,32.53
2023-01-30T00:37:02.531Z,31.15
2023-01-30T00:39:33.760Z,30.60
2023-01-30T00:42:00.161Z,31.88
2023-01-30T00:44:26.595Z,30.67
2023-01-30T00:46:53.073Z,29.67
2023-01-30T00:49:20.831Z,31.45
2023-01-30T00:51:47.378Z,28.30
2023-01-30T00:54:13.797Z,35.70
2023-01-30T00:56:40.214Z,31.00
2023-01-30T00:59:06.656Z,30.55
2023-01-30T01:01:33.511Z,35.13
2023-01-30T01:03:59.933Z,31.63
2023-01-30T01:06:27.651Z,31.30
2023-01-30T01:08:54.264Z,33.10
2023-01-30T01:11:20.791Z,36.40
2023-01-30T01:13:47.197Z,38.28
2023-01-30T01:16:13.620Z,35.88
2023-01-30T01:18:40.084Z,35.72
2023-01-30T01:21:06.538Z,41.38
2023-01-30T01:23:34.293Z,35.05
2023-01-30T01:26:01.526Z,35.22
2023-01-30T01:28:27.978Z,39.28
2023-01-30T01:30:54.435Z,38.92
2023-01-30T01:33:20.898Z,39.15
2023-01-30T01:35:47.370Z,33.17
2023-01-30T01:38:13.994Z,38.75
2023-01-30T01:40:45.754Z,41.60
2023-01-30T01:43:16.829Z,36.92
2023-01-30T01:45:45.139Z,33.70
2023-01-30T01:48:18.844Z,38.53
2023-01-30T01:50:49.724Z,35.10
2023-01-30T01:53:21.361Z,33.15
2023-01-30T01:55:52.262Z,36.40
2023-01-30T01:58:23.909Z,28.17
2023-01-30T02:00:50.955Z,29.13
2023-01-30T02:03:21.429Z,31.42
2023-01-30T02:05:51.411Z,28.13
2023-01-30T02:08:22.479Z,27.92
2023-01-30T02:10:56.493Z,28.25
2023-01-30T02:13:23.578Z,25.35
2023-01-30T02:15:51.296Z,27.25
2023-01-30T02:18:18.381Z,27.83
2023-01-30T02:21:10.779Z,27.50
2023-01-30T02:24:03.389Z,28.13
2023-01-30T02:26:52.631Z,30.88
2023-01-30T02:29:54.469Z,31.38
2023-01-30T02:32:34.057Z,27.65
2023-01-30T02:35:06.958Z,33.40
2023-01-30T02:37:48.364Z,31.47
2023-01-30T02:40:28.275Z,31.05
2023-01-30T02:43:05.929Z,31.95
2023-01-30T02:45:36.134Z,30.42
2023-01-30T02:48:06.560Z,32.45
2023-01-30T02:50:37.087Z,28.50
2023-01-30T02:53:05.349Z,29.25
2023-01-30T02:55:32.099Z,31.77
2023-01-30T02:57:58.533Z,32.92
2023-01-30T03:00:37.486Z,32.08
2023-01-30T03:03:32.354Z,32.22
2023-01-30T03:06:13.047Z,29.92
2023-01-30T03:08:48.458Z,30.40
2023-01-30T03:11:15.241Z,35.03
2023-01-30T03:13:50.387Z,29.00
2023-01-30T03:16:20.988Z,30.90
2023-01-30T03:18:49.524Z,30.33
2023-01-30T03:21:16.631Z,30.88
2023-01-30T03:23:44.540Z,34.13
2023-01-30T03:26:16.859Z,37.58
2023-01-30T03:28:44.927Z,37.75
2023-01-30T03:31:11.497Z,37.95
2023-01-30T03:33:37.984Z,39.85
2023-01-30T03:36:06.353Z,42.15
2023-01-30T03:38:33.904Z,35.97
2023-01-30T03:41:00.575Z,33.90
2023-01-30T03:43:26.989Z,37.85
2023-01-30T03:45:53.419Z,37.25
2023-01-30T03:48:20.020Z,34.70
2023-01-30T03:50:46.418Z,34.53
2023-01-30T03:53:14.182Z,34.83
2023-01-30T03:55:40.611Z,32.88
2023-01-30T03:58:07.151Z,34.63
2023-01-30T04:00:33.573Z,34.10
2023-01-30T04:03:00.016Z,30.95
2023-01-30T04:05:26.465Z,34.88
2023-01-30T04:07:56.499Z,30.10
2023-01-30T04:10:24.600Z,29.40
2023-01-30T04:12:51.018Z,29.48
2023-01-30T04:15:17.751Z,31.80
2023-01-30T04:17:44.464Z,23.40
2023-01-30T04:20:11.477Z,23.30
2023-01-30T04:22:37.862Z,25.35
2023-01-30T04:25:04.836Z,28.50
2023-01-30T04:27:32.569Z,23.83
2023-01-30T04:29:58.969Z,22.42
2023-01-30T04:32:26.187Z,24.30
2023-01-30T04:34:52.611Z,20.17
2023-01-30T04:37:19.008Z,21.30
2023-01-30T04:39:45.431Z,19.40
2023-01-30T04:42:11.848Z,15.02
2023-01-30T04:44:39.568Z,20.40
2023-01-30T04:47:06.014Z,19.17
2023-01-30T04:49:32.530Z,18.40
2023-01-30T04:51:58.926Z,13.57
2023-01-30T04:54:25.523Z,15.10
2023-01-30T04:56:51.962Z,13.18
2023-01-30T04:59:18.435Z,15.88
2023-01-30T05:01:46.330Z,14.25
2023-01-30T05:04:12.979Z,16.65
2023-01-30T05:06:39.369Z,12.80
2023-01-30T05:09:06.043Z,13.05
2023-01-30T05:11:32.749Z,13.32
2023-01-30T05:13:59.302Z,14.18
2023-01-30T05:16:26.647Z,11.75
2023-01-30T05:18:54.376Z,11.10
2023-01-30T05:21:22.634Z,11.35
2023-01-30T05:23:50.717Z,12.25
2023-01-30T05:26:17.198Z,9.40
2023-01-30T05:28:43.755Z,12.35
2023-01-30T05:31:12.672Z,14.13
2023-01-30T05:33:40.110Z,13.25
2023-01-30T05:36:13.478Z,11.70
2023-01-30T05:38:39.886Z,11.63
2023-01-30T05:41:08.066Z,13.30
2023-01-30T05:43:35.387Z,12.35
2023-01-30T05:46:05.729Z,13.82
2023-01-30T05:48:33.355Z,9.55
2023-01-30T05:51:00.275Z,11.88
2023-01-30T05:53:30.087Z,10.77
2023-01-30T05:55:57.123Z,12.50
2023-01-30T05:58:24.157Z,11.95
2023-01-30T06:00:51.457Z,12.27
2023-01-30T06:03:17.977Z,12.80
2023-01-30T06:05:44.486Z,13.07
2023-01-30T06:08:11.037Z,14.02
2023-01-30T06:10:38.804Z,14.43
2023-01-30T06:13:05.246Z,12.98
2023-01-30T06:15:32.494Z,14.38
2023-01-30T06:17:58.868Z,13.85
2023-01-30T06:20:25.329Z,10.43
2023-01-30T06:22:51.707Z,8.50
2023-01-30T06:25:18.355Z,11.40
2023-01-30T06:27:47.127Z,7.97
2023-01-30T06:30:14.109Z,7.93
2023-01-30T06:32:40.539Z,10.90
2023-01-30T06:35:07.973Z,9.35
2023-01-30T06:37:34.367Z,8.82
2023-01-30T06:40:00.782Z,9.52
2023-01-30T06:42:27.228Z,9.18
2023-01-30T06:44:54.962Z,8.02
2023-01-30T06:47:21.413Z,10.65
2023-01-30T06:49:47.812Z,8.15
2023-01-30T06:52:14.223Z,7.88
2023-01-30T06:54:40.600Z,11.77
2023-01-30T06:57:07.128Z,11.50
2023-01-30T06:59:33.551Z,11.82
2023-01-30T07:02:01.318Z,13.05
2023-01-30T07:04:27.881Z,10.88
2023-01-30T07:06:54.316Z,10.15
2023-01-30T07:09:20.731Z,10.85
2023-01-30T07:11:47.162Z,10.73
2023-01-30T07:14:13.559Z,13.25
2023-01-30T07:16:39.983Z,9.25
2023-01-30T07:19:07.954Z,10.65
2023-01-30T07:21:34.349Z,13.05
2023-01-30T07:24:00.754Z,14.32
2023-01-30T07:26:27.199Z,11.45
2023-01-30T07:28:53.620Z,11.45
2023-01-30T07:31:20.073Z,9.57
2023-01-30T07:33:46.555Z,13.68
2023-01-30T07:36:14.327Z,17.92
2023-01-30T07:38:40.734Z,12.15
2023-01-30T07:41:07.160Z,11.65
2023-01-30T07:43:33.563Z,9.75
2023-01-30T07:46:00.632Z,14.85
2023-01-30T07:48:27.100Z,16.80
2023-01-30T07:50:55.991Z,10.40
2023-01-30T07:53:24.019Z,12.10
2023-01-30T07:56:12.541Z,12.35
2023-01-30T07:58:38.933Z,7.85
2023-01-30T08:01:05.739Z,9.68
2023-01-30T08:03:32.254Z,13.52
2023-01-30T08:05:59.086Z,15.60
2023-01-30T08:08:26.857Z,8.43
2023-01-30T08:10:53.312Z,13.35
2023-01-30T08:13:19.698Z,12.48
2023-01-30T08:15:46.111Z,20.40
2023-01-30T08:18:12.588Z,11.40
2023-01-30T08:20:39.070Z,14.10
2023-01-30T08:23:05.841Z,17.85
2023-01-30T08:25:33.919Z,13.82
2023-01-30T08:28:00.301Z,14.93
2023-01-30T08:30:26.903Z,13.98
2023-01-30T08:32:53.354Z,14.65
2023-01-30T08:35:20.228Z,11.85
2023-01-30T08:37:46.631Z,15.30
2023-01-30T08:40:14.053Z,13.32
2023-01-30T08:42:43.879Z,14.15
2023-01-30T08:45:11.552Z,12.00
2023-01-30T08:47:38.068Z,17.27
2023-01-30T08:50:05.627Z,12.95
2023-01-30T08:52:32.095Z,13.35
2023-01-30T08:54:58.519Z,12.18
2023-01-30T08:57:24.912Z,20.92
2023-01-30T08:59:52.751Z,14.32
2023-01-30T09:02:19.315Z,14.90
2023-01-30T09:04:45.761Z,16.45
2023-01-30T09:07:12.204Z,13.98
2023-01-30T09:09:38.636Z,10.20
2023-01-30T09:12:05.349Z,12.70
2023-01-30T09:14:31.743Z,17.85
2023-01-30T09:16:59.784Z,14.80
2023-01-30T09:19:27.802Z,17.25
2023-01-30T09:21:55.040Z,23.13
2023-01-30T09:24:22.535Z,13.93
2023-01-30T09:26:48.998Z,15.20
2023-01-30T09:29:15.498Z,18.77
2023-01-30T09:31:42.005Z,18.92
2023-01-30T09:34:09.772Z,17.98
2023-01-30T09:36:36.197Z,16.17
2023-01-30T09:39:02.605Z,19.60
2023-01-30T09:41:48.841Z,14.80
2023-01-30T09:44:34.761Z,12.32
2023-01-30T09:47:09.371Z,16.10
2023-01-30T09:49:50.353Z,14.50
2023-01-30T09:52:27.319Z,14.73
2023-01-30T09:55:00.420Z,13.73
2023-01-30T09:57:27.019Z,15.77
2023-01-30T09:59:57.496Z,11.45
2023-01-30T10:02:36.950Z,20.08
2023-01-30T10:05:05.714Z,12.98
2023-01-30T10:07:45.301Z,12.25
2023-01-30T10:10:20.928Z,18.60
2023-01-30T10:12:57.885Z,11.93
2023-01-30T10:15:39.810Z,14.73
2023-01-30T10:18:43.071Z,17.10
2023-01-30T10:21:24.524Z,18.50
2023-01-30T10:24:06.156Z,10.48
2023-01-30T10:26:33.450Z,14.25
2023-01-30T10:29:07.757Z,19.73
2023-01-30T10:31:41.533Z,13.40
2023-01-30T10:34:12.120Z,14.57
2023-01-30T10:36:45.903Z,13.18
2023-01-30T10:41:55.203Z,15.18
2023-01-30T10:44:24.181Z,20.33
2023-01-30T10:47:17.394Z,16.20
2023-01-30T10:49:46.495Z,13.18
2023-01-30T10:52:24.827Z,13.38
2023-01-30T10:55:00.903Z,8.57
2023-01-30T10:57:36.734Z,10.77
2023-01-30T11:00:08.921Z,15.90
2023-01-30T11:02:43.086Z,8.82
2023-01-30T11:05:16.063Z,16.30
2023-01-30T11:07:46.969Z,14.65
2023-01-30T11:10:16.968Z,14.73
2023-01-30T11:12:43.385Z,21.75
2023-01-30T11:15:11.052Z,13.63
2023-01-30T11:17:40.611Z,13.07
2023-01-30T11:20:14.174Z,17.48
2023-01-30T11:22:48.400Z,13.73
2023-01-30T11:25:18.455Z,18.15
2023-01-30T11:27:52.923Z,14.98
2023-01-30T11:30:21.573Z,15.55
2023-01-30T11:32:49.669Z,10.88
2023-01-30T11:35:28.044Z,15.73
2023-01-30T11:38:11.434Z,15.65
2023-01-30T11:40:39.138Z,17.58
2023-01-30T11:43:12.156Z,14.27
2023-01-30T11:45:41.751Z,10.27
2023-01-30T11:48:34.040Z,21.52
2023-01-30T11:51:06.129Z,18.35
2023-01-30T11:53:38.545Z,20.00
2023-01-30T11:56:10.567Z,21.00
2023-01-30T11:58:40.658Z,20.02
2023-01-30T12:01:10.261Z,15.38
2023-01-30T12:03:44.842Z,16.08
2023-01-30T12:06:11.442Z,10.20
2023-01-30T12:08:42.969Z,11.80
2023-01-30T12:11:26.175Z,11.05
2023-01-30T12:13:55.062Z,12.90
2023-01-30T12:16:24.068Z,9.27
2023-01-30T12:18:59.124Z,12.02
2023-01-30T12:21:34.662Z,13.05
2023-01-30T12:24:22.001Z,16.00
2023-01-30T12:26:55.052Z,10.00
2023-01-30T12:29:27.837Z,12.15
2023-01-30T12:32:05.309Z,7.50
2023-01-30T12:34:31.985Z,16.40
2023-01-30T12:37:14.651Z,11.23
2023-01-30T12:39:58.771Z,18.70
2023-01-30T12:45:14.073Z,11.90
2023-01-30T12:47:57.386Z,13.52
2023-01-30T12:50:32.464Z,11.88
2023-01-30T12:53:20.712Z,12.75
2023-01-30T12:55:56.026Z,15.77
2023-01-30T12:58:27.559Z,11.38
2023-01-30T13:01:15.755Z,9.00
2023-01-30T13:03:48.419Z,9.65
2023-01-30T13:06:31.815Z,4.85
2023-01-30T13:09:13.661Z,5.43
2023-01-30T13:11:54.947Z,5.60
2023-01-30T13:14:28.769Z,10.88
2023-01-30T13:19:41.155Z,9.65
2023-01-30T13:22:15.590Z,6.80
2023-01-30T13:24:51.334Z,8.57
2023-01-30T13:27:22.150Z,16.17
2023-01-30T13:29:49.937Z,12.55
2023-01-30T13:32:21.570Z,10.48
2023-01-30T13:34:48.775Z,15.05
2023-01-30T13:37:18.702Z,13.65
2023-01-30T13:39:48.962Z,14.45
2023-01-30T13:42:27.722Z,15.95
2023-01-30T13:44:55.968Z,21.83
2023-01-30T13:47:32.356Z,16.98
2023-01-30T13:50:16.675Z,14.30
2023-01-30T13:52:49.683Z,14.52
2023-01-30T13:55:28.552Z,10.07
2023-01-30T13:58:04.161Z,11.80
2023-01-30T14:00:32.615Z,11.52
2023-01-30T14:03:23.275Z,12.73
2023-01-30T14:06:12.720Z,11.52
2023-01-30T14:08:48.598Z,14.05
2023-01-30T14:11:35.373Z,10.27
2023-01-30T14:14:06.611Z,15.50
2023-01-30T14:16:41.408Z,9.65
2023-01-30T14:19:31.332Z,9.00
2023-01-30T14:21:59.537Z,12.30
2023-01-30T14:24:27.277Z,14.05
2023-01-30T14:27:04.911Z,6.32
2023-01-30T14:30:00.337Z,10.23
2023-01-30T14:32:54.981Z,19.65
2023-01-30T14:35:26.531Z,8.18
2023-01-30T14:38:18.473Z,10.25
2023-01-30T14:41:09.547Z,11.80
2023-01-30T14:43:46.138Z,17.83
2023-01-30T14:46:54.365Z,14.52
2023-01-30T14:49:27.321Z,16.55
2023-01-30T14:51:54.263Z,16.75
2023-01-30T14:54:33.327Z,14.45
2023-01-30T14:57:19.111Z,13.73
2023-01-30T15:00:03.240Z,14.75
2023-01-30T15:02:42.735Z,10.57
2023-01-30T15:05:13.948Z,14.85
2023-01-30T15:07:44.087Z,12.55
2023-01-30T15:10:41.019Z,14.20
2023-01-30T15:13:36.183Z,13.73
2023-01-30T15:16:14.675Z,17.58
2023-01-30T15:18:55.614Z,17.20
2023-01-30T15:21:43.495Z,18.52
2023-01-30T15:24:45.538Z,16.55
2023-01-30T15:27:20.637Z,19.13
2023-01-30T15:30:12.630Z,14.40
2023-01-30T15:32:39.031Z,20.88
2023-01-30T15:35:23.169Z,14.02
2023-01-30T15:40:23.768Z,13.30
2023-01-30T15:42:55.888Z,22.10
2023-01-30T15:45:32.821Z,16.77
2023-01-30T15:48:14.599Z,17.70
2023-01-30T15:50:48.302Z,16.67
2023-01-30T15:53:15.467Z,14.75
2023-01-30T15:55:43.999Z,15.20
2023-01-30T15:58:13.594Z,15.88
2023-01-30T16:00:45.672Z,20.27
2023-01-30T16:03:16.932Z,21.40
2023-01-30T16:05:48.620Z,19.10
2023-01-30T16:08:20.933Z,15.70
2023-01-30T16:10:47.390Z,22.00
2023-01-30T16:13:13.843Z,19.35
2023-01-30T16:15:45.842Z,26.05
2023-01-30T16:18:24.005Z,17.00
2023-01-30T16:23:52.513Z,15.40
2023-01-30T16:26:19.859Z,16.77
2023-01-30T16:28:46.248Z,20.92
2023-01-30T16:31:13.233Z,17.05
2023-01-30T16:33:39.781Z,20.13
2023-01-30T16:36:30.645Z,17.17
2023-01-30T16:38:57.127Z,16.90
2023-01-30T16:41:30.192Z,25.05
2023-01-30T16:44:17.030Z,17.20
2023-01-30T16:46:50.407Z,17.77
2023-01-30T16:49:21.160Z,11.02
2023-01-30T16:51:49.786Z,14.63
2023-01-30T16:54:21.014Z,11.60
2023-01-30T16:56:52.745Z,6.50
2023-01-30T16:59:21.303Z,13.02
2023-01-30T17:01:48.910Z,16.35
2023-01-30T17:04:19.532Z,14.27
2023-01-30T17:06:55.422Z,12.95
2023-01-30T17:09:37.180Z,16.00
2023-01-30T17:12:37.379Z,17.17
2023-01-30T17:15:26.717Z,17.45
2023-01-30T17:17:53.176Z,17.40
2023-01-30T17:20:19.602Z,13.30
2023-01-30T17:22:50.524Z,13.60
2023-01-30T17:25:21.893Z,13.07
2023-01-30T17:27:48.480Z,17.73
2023-01-30T17:30:16.605Z,17.48
2023-01-30T17:32:43.198Z,20.08
2023-01-30T17:35:11.790Z,21.92
2023-01-30T17:37:38.438Z,17.70
2023-01-30T17:40:15.843Z,15.60
2023-01-30T17:42:42.343Z,15.98
2023-01-30T17:45:09.656Z,18.15
2023-01-30T17:47:36.795Z,13.70
2023-01-30T17:50:03.559Z,16.65
2023-01-30T17:52:29.992Z,14.85
2023-01-30T17:54:56.423Z,16.02
2023-01-30T17:57:24.211Z,15.18
2023-01-30T17:59:50.628Z,13.50
2023-01-30T18:02:17.045Z,14.73
2023-01-30T18:04:43.426Z,13.65
2023-01-30T18:07:15.795Z,12.55
2023-01-30T18:09:42.746Z,17.38
2023-01-30T18:12:09.160Z,16.30
2023-01-30T18:14:36.928Z,16.35
2023-01-30T18:17:03.465Z,21.00
2023-01-30T18:19:29.911Z,14.38
2023-01-30T18:21:56.286Z,17.25
2023-01-30T18:24:22.707Z,16.17
2023-01-30T18:26:49.143Z,17.95
2023-01-30T18:29:15.675Z,15.00
2023-01-30T18:31:43.571Z,18.05
2023-01-30T18:34:10.837Z,14.57
2023-01-30T18:36:37.553Z,17.60
2023-01-30T18:39:05.331Z,20.10
2023-01-30T18:41:32.206Z,21.88
2023-01-30T18:44:00.969Z,16.38
2023-01-30T18:46:28.910Z,17.70
2023-01-30T18:48:57.003Z,20.10
2023-01-30T18:51:25.336Z,16.05
2023-01-30T18:53:53.691Z,19.80
2023-01-30T18:56:22.043Z,12.50
2023-01-30T18:58:48.808Z,22.23
2023-01-30T19:01:17.464Z,18.20
2023-01-30T19:03:44.381Z,19.60
2023-01-30T19:06:13.838Z,15.80
2023-01-30T19:08:40.710Z,12.52
2023-01-30T19:11:09.034Z,15.43
2023-01-30T19:13:36.643Z,23.33
2023-01-30T19:16:03.969Z,16.02
2023-01-30T19:18:31.561Z,21.90
2023-01-30T19:20:59.473Z,18.27
2023-01-30T19:23:27.777Z,17.05
2023-01-30T19:25:55.324Z,18.13
2023-01-30T19:28:21.883Z,22.98
2023-01-30T19:30:48.777Z,19.65
2023-01-30T19:33:15.589Z,22.63
2023-01-30T19:35:42.178Z,22.17
2023-01-30T19:38:08.621Z,29.15
2023-01-30T19:40:40.327Z,24.88
2023-01-30T19:43:10.804Z,23.77
2023-01-30T19:45:38.157Z,19.88
2023-01-30T19:48:05.382Z,22.17
2023-01-30T19:50:31.821Z,20.92
2023-01-30T19:52:58.544Z,18.85
2023-01-30T19:55:24.989Z,22.92
2023-01-30T19:57:52.777Z,19.50
2023-01-30T20:00:20.531Z,21.17
2023-01-30T20:02:47.248Z,20.98
2023-01-30T20:05:13.691Z,19.30
2023-01-30T20:07:40.111Z,34.08
2023-01-30T20:10:06.981Z,19.98
2023-01-30T20:12:33.405Z,21.67
2023-01-30T20:15:01.722Z,25.38
2023-01-30T20:17:28.194Z,19.88
2023-01-30T20:19:54.649Z,26.55
2023-01-30T20:22:21.077Z,25.25
2023-01-30T20:24:47.499Z,16.20
2023-01-30T20:27:13.965Z,26.60
2023-01-30T20:29:40.503Z,20.92
2023-01-30T20:32:08.262Z,21.42
2023-01-30T20:34:34.702Z,15.88
2023-01-30T20:37:01.183Z,25.90
2023-01-30T20:39:27.781Z,18.05
2023-01-30T20:41:54.202Z,22.42
2023-01-30T20:44:20.625Z,30.58
2023-01-30T20:46:47.409Z,24.92
2023-01-30T20:49:17.063Z,21.00
2023-01-30T20:51:43.620Z,14.77
2023-01-30T20:54:12.069Z,17.77
2023-01-30T20:56:40.408Z,23.23
2023-01-30T20:59:07.581Z,19.52
2023-01-30T21:01:35.022Z,17.95
2023-01-30T21:04:06.125Z,18.15
2023-01-30T21:06:42.976Z,16.85
2023-01-30T21:09:13.655Z,25.35
2023-01-30T21:11:40.333Z,21.58
2023-01-30T21:14:07.352Z,21.05
2023-01-30T21:16:35.455Z,23.92
2023-01-30T21:19:04.212Z,21.98
2023-01-30T21:21:35.201Z,25.48
2023-01-30T21:24:04.508Z,22.40
2023-01-30T21:26:33.678Z,16.10
2023-01-30T21:29:00.716Z,12.23
2023-01-30T21:31:29.033Z,17.40
2023-01-30T21:33:56.600Z,20.63
2023-01-30T21:36:23.444Z,21.52
2023-01-30T21:38:51.591Z,26.67
2023-01-30T21:41:19.820Z,22.15
2023-01-30T21:43:47.285Z,17.88
2023-01-30T21:46:14.691Z,18.92
2023-01-30T21:48:41.163Z,22.63
2023-01-30T21:51:11.828Z,20.20
2023-01-30T21:53:38.770Z,17.30
2023-01-30T21:56:07.595Z,20.83
2023-01-30T21:58:34.085Z,14.68
2023-01-30T22:01:05.583Z,19.77
2023-01-30T22:03:32.189Z,19.65
2023-01-30T22:05:58.610Z,23.60
2023-01-30T22:08:25.053Z,21.98
2023-01-30T22:10:51.461Z,12.88
2023-01-30T22:13:19.205Z,15.48
2023-01-30T22:15:45.630Z,16.27
2023-01-30T22:18:12.048Z,9.73
2023-01-30T22:20:38.607Z,12.30
2023-01-30T22:23:05.055Z,15.73
2023-01-30T22:25:31.434Z,13.10
2023-01-30T22:27:57.835Z,11.32
2023-01-30T22:30:25.622Z,11.55
2023-01-30T22:32:53.348Z,10.75
2023-01-30T22:35:20.179Z,12.75
2023-01-30T22:37:46.860Z,12.02
2023-01-30T22:40:13.510Z,18.20
2023-01-30T22:42:39.917Z,13.75
2023-01-30T22:45:07.847Z,18.48
2023-01-30T22:47:36.052Z,9.57
2023-01-30T22:50:02.495Z,13.68
2023-01-30T22:52:28.932Z,10.73
2023-01-30T22:54:55.345Z,16.13
2023-01-30T22:57:21.768Z,13.90
2023-01-30T22:59:48.184Z,16.48
2023-01-30T23:02:14.668Z,15.13
2023-01-30T23:04:42.437Z,12.25
2023-01-30T23:07:08.891Z,10.57
2023-01-30T23:09:35.667Z,20.95
2023-01-30T23:12:02.077Z,17.35
2023-01-30T23:14:28.492Z,15.65
2023-01-30T23:16:54.926Z,13.13
2023-01-30T23:19:21.361Z,14.20
2023-01-30T23:21:49.234Z,14.75
2023-01-30T23:24:17.979Z,14.82
2023-01-30T23:26:46.098Z,19.30
2023-01-30T23:29:15.769Z,10.25
2023-01-30T23:31:44.338Z,20.40
2023-01-30T23:34:13.074Z,16.98
2023-01-30T23:36:40.078Z,15.18
2023-01-30T23:39:08.155Z,17.85
2023-01-30T23:41:36.572Z,20.65
2023-01-30T23:44:04.124Z,12.35
2023-01-30T23:46:32.479Z,16.63
2023-01-30T23:49:01.000Z,20.88
2023-01-30T23:51:29.694Z,16.25
2023-01-30T23:53:57.171Z,20.80
2023-01-30T23:56:26.894Z,15.38
2023-01-30T23:58:53.782Z,24.20
